createdAt,value
2018-11-23T00:00:02.536Z,99873.89
2018-11-23T00:00:37.915Z,99873.37
2018-11-23T00:01:13.304Z,99871.45
2018-11-23T00:01:48.621Z,99874.72
2018-11-23T00:02:24.178Z,99868.48
2018-11-23T00:03:00.583Z,99872.28
2018-11-23T00:03:35.993Z,99872.84
2018-11-23T00:04:11.290Z,99879.87
2018-11-23T00:04:46.995Z,99880.17
2018-11-23T00:05:22.991Z,99872.05
2018-11-23T00:05:58.391Z,99875.84
2018-11-23T00:06:33.601Z,99870.99
2018-11-23T00:07:09.036Z,99875.84
2018-11-23T00:07:45.306Z,99874.82
2018-11-23T00:08:20.725Z,99874.30
2018-11-23T00:08:56.086Z,99871.02
2018-11-23T00:09:31.575Z,99877.53
2018-11-23T00:10:09.644Z,99875.65
2018-11-23T00:10:45.193Z,99879.71
2018-11-23T00:11:20.330Z,99879.42
2018-11-23T00:11:55.798Z,99884.63
2018-11-23T00:12:31.149Z,99877.89
2018-11-23T00:13:06.683Z,99883.58
2018-11-23T00:13:41.825Z,99880.30
2018-11-23T00:14:17.290Z,99883.88
2018-11-23T00:14:52.589Z,99881.98
2018-11-23T00:15:27.953Z,99880.34
2018-11-23T00:16:03.184Z,99886.05
2018-11-23T00:16:38.636Z,99881.39
2018-11-23T00:17:14.068Z,99884.70
2018-11-23T00:17:49.671Z,99887.14
2018-11-23T00:18:25.150Z,99889.03
2018-11-23T00:19:00.458Z,99886.28
2018-11-23T00:19:35.969Z,99886.58
2018-11-23T00:20:14.497Z,99889.00
2018-11-23T00:20:49.923Z,99884.93
2018-11-23T00:21:25.160Z,99887.34
2018-11-23T00:22:00.711Z,99891.91
2018-11-23T00:22:36.283Z,99890.32
2018-11-23T00:23:11.664Z,99893.27
2018-11-23T00:23:47.014Z,99894.88
2018-11-23T00:24:22.431Z,99894.58
2018-11-23T00:24:57.989Z,99886.19
2018-11-23T00:25:33.341Z,99897.06
2018-11-23T00:26:08.625Z,99901.75
2018-11-23T00:26:43.990Z,99895.21
2018-11-23T00:27:19.176Z,99897.13
2018-11-23T00:27:55.237Z,99897.92
2018-11-23T00:28:30.694Z,99895.45
2018-11-23T00:29:06.214Z,99900.59
2018-11-23T00:29:41.827Z,99899.81
2018-11-23T00:30:22.320Z,99894.69
2018-11-23T00:30:57.796Z,99892.47
2018-11-23T00:31:32.975Z,99895.37
2018-11-23T00:32:08.189Z,99890.22
2018-11-23T00:32:43.641Z,99892.17
2018-11-23T00:33:19.041Z,99894.84
2018-11-23T00:33:54.542Z,99892.97
2018-11-23T00:34:30.289Z,99892.38
2018-11-23T00:35:06.503Z,99900.53
2018-11-23T00:35:42.007Z,99898.66
2018-11-23T00:36:17.271Z,99898.12
2018-11-23T00:36:53.361Z,99896.70
2018-11-23T00:37:28.752Z,99895.94
2018-11-23T00:38:04.357Z,99899.24
2018-11-23T00:38:40.107Z,99892.70
2018-11-23T00:39:15.523Z,99892.38
2018-11-23T00:39:51.086Z,99894.55
2018-11-23T00:40:28.215Z,99893.80
2018-11-23T00:41:03.550Z,99896.44
2018-11-23T00:41:39.336Z,99899.67
2018-11-23T00:42:14.755Z,99898.31
2018-11-23T00:42:50.405Z,99900.50
2018-11-23T00:43:25.585Z,99895.64
2018-11-23T00:44:00.965Z,99895.67
2018-11-23T00:44:36.552Z,99900.83
2018-11-23T00:45:13.967Z,99897.56
2018-11-23T00:45:49.455Z,99901.33
2018-11-23T00:46:24.638Z,99896.95
2018-11-23T00:47:00.119Z,99898.05
2018-11-23T00:47:35.585Z,99904.83
2018-11-23T00:48:10.856Z,99894.78
2018-11-23T00:48:46.216Z,99898.80
2018-11-23T00:49:21.408Z,99899.63
2018-11-23T00:49:56.885Z,99898.23
2018-11-23T00:50:32.336Z,99885.48
2018-11-23T00:51:07.666Z,99892.81
2018-11-23T00:51:42.973Z,99896.89
2018-11-23T00:52:18.331Z,99893.31
2018-11-23T00:52:54.981Z,99892.03
2018-11-23T00:53:31.613Z,99890.91
2018-11-23T00:54:06.835Z,99888.72
2018-11-23T00:54:42.270Z,99893.39
2018-11-23T00:55:19.382Z,99887.97
2018-11-23T00:55:54.895Z,99896.32
2018-11-23T00:56:30.306Z,99891.42
2018-11-23T00:57:05.590Z,99895.19
2018-11-23T00:57:41.130Z,99891.39
2018-11-23T00:58:16.517Z,99894.09
2018-11-23T00:58:52.096Z,99893.83
2018-11-23T00:59:27.555Z,99889.52
2018-11-23T01:00:02.937Z,99889.20
2018-11-23T01:00:38.356Z,99883.17
2018-11-23T01:01:13.837Z,99890.03
2018-11-23T01:01:54.173Z,99885.10
2018-11-23T01:02:29.455Z,99886.37
2018-11-23T01:03:06.219Z,99878.55
2018-11-23T01:03:41.619Z,99880.95
2018-11-23T01:04:16.892Z,99883.65
2018-11-23T01:04:52.356Z,99891.20
2018-11-23T01:05:27.867Z,99880.64
2018-11-23T01:06:03.182Z,99881.73
2018-11-23T01:06:38.675Z,99883.61
2018-11-23T01:07:13.976Z,99888.45
2018-11-23T01:07:50.092Z,99887.66
2018-11-23T01:08:25.420Z,99880.34
2018-11-23T01:09:00.752Z,99881.95
2018-11-23T01:09:36.478Z,99879.25
2018-11-23T01:10:14.909Z,99877.88
2018-11-23T01:10:50.308Z,99880.90
2018-11-23T01:11:25.728Z,99882.83
2018-11-23T01:12:01.293Z,99885.88
2018-11-23T01:12:36.566Z,99874.56
2018-11-23T01:13:11.892Z,99882.16
2018-11-23T01:13:47.144Z,99878.94
2018-11-23T01:14:22.404Z,99880.02
2018-11-23T01:14:57.943Z,99879.76
2018-11-23T01:15:33.419Z,99875.36
2018-11-23T01:16:08.727Z,99879.77
2018-11-23T01:16:44.111Z,99880.85
2018-11-23T01:17:19.476Z,99884.05
2018-11-23T01:17:54.837Z,99880.20
2018-11-23T01:18:30.363Z,99879.45
2018-11-23T01:19:05.933Z,99888.91
2018-11-23T01:19:41.338Z,99880.73
2018-11-23T01:20:19.947Z,99873.69
2018-11-23T01:20:55.337Z,99881.03
2018-11-23T01:21:30.795Z,99885.14
2018-11-23T01:22:06.252Z,99875.92
2018-11-23T01:22:42.324Z,99878.33
2018-11-23T01:23:17.754Z,99880.25
2018-11-23T01:23:53.047Z,99877.02
2018-11-23T01:24:28.637Z,99877.72
2018-11-23T01:25:04.126Z,99870.98
2018-11-23T01:25:39.435Z,99876.28
2018-11-23T01:26:14.747Z,99871.12
2018-11-23T01:26:50.023Z,99873.30
2018-11-23T01:27:25.341Z,99869.55
2018-11-23T01:28:00.942Z,99874.44
2018-11-23T01:28:36.392Z,99869.23
2018-11-23T01:29:12.058Z,99880.64
2018-11-23T01:29:47.313Z,99877.67
2018-11-23T01:30:28.544Z,99877.98
2018-11-23T01:31:04.248Z,99880.17
2018-11-23T01:31:39.568Z,99879.91
2018-11-23T01:32:15.046Z,99881.48
2018-11-23T01:32:50.428Z,99879.25
2018-11-23T01:33:25.567Z,99878.71
2018-11-23T01:34:00.830Z,99877.77
2018-11-23T01:34:36.243Z,99882.25
2018-11-23T01:35:11.610Z,99883.83
2018-11-23T01:35:47.014Z,99874.35
2018-11-23T01:36:22.736Z,99868.07
2018-11-23T01:36:58.338Z,99874.40
2018-11-23T01:37:33.885Z,99880.77
2018-11-23T01:38:09.202Z,99874.40
2018-11-23T01:38:44.448Z,99874.40
2018-11-23T01:39:20.041Z,99872.73
2018-11-23T01:39:55.343Z,99873.00
2018-11-23T01:40:32.074Z,99878.45
2018-11-23T01:41:07.457Z,99878.98
2018-11-23T01:41:42.747Z,99877.71
2018-11-23T01:42:18.541Z,99874.70
2018-11-23T01:42:54.602Z,99870.64
2018-11-23T01:43:30.000Z,99870.91
2018-11-23T01:44:05.854Z,99872.00
2018-11-23T01:44:46.124Z,99872.21
2018-11-23T01:45:21.497Z,99871.73
2018-11-23T01:45:56.823Z,99871.17
2018-11-23T01:46:32.327Z,99869.55
2018-11-23T01:47:07.669Z,99866.53
2018-11-23T01:47:42.961Z,99866.94
2018-11-23T01:48:18.477Z,99866.94
2018-11-23T01:48:53.802Z,99867.72
2018-11-23T01:49:29.149Z,99871.25
2018-11-23T01:50:04.502Z,99868.28
2018-11-23T01:50:40.009Z,99867.88
2018-11-23T01:51:15.486Z,99863.92
2018-11-23T01:51:50.892Z,99868.28
2018-11-23T01:52:26.313Z,99871.56
2018-11-23T01:53:01.691Z,99863.28
2018-11-23T01:53:36.982Z,99870.63
2018-11-23T01:54:12.402Z,99869.80
2018-11-23T01:54:47.761Z,99872.45
2018-11-23T01:55:24.035Z,99869.64
2018-11-23T01:55:59.509Z,99867.72
2018-11-23T01:56:34.813Z,99865.78
2018-11-23T01:57:10.376Z,99872.03
2018-11-23T01:57:46.110Z,99868.12
2018-11-23T01:58:21.419Z,99866.11
2018-11-23T01:58:57.024Z,99866.94
2018-11-23T01:59:32.415Z,99863.08
2018-11-23T02:00:08.687Z,99866.31
2018-11-23T02:00:44.027Z,99867.19
2018-11-23T02:01:19.437Z,99866.52
2018-11-23T02:01:54.684Z,99859.08
2018-11-23T02:02:30.136Z,99863.13
2018-11-23T02:03:05.465Z,99867.25
2018-11-23T02:03:40.893Z,99725.50
2018-11-23T02:04:16.170Z,99862.56
2018-11-23T02:04:51.689Z,99868.07
2018-11-23T02:05:27.021Z,99862.98
2018-11-23T02:06:02.301Z,99859.19
2018-11-23T02:06:37.642Z,99859.12
2018-11-23T02:07:13.018Z,99861.52
2018-11-23T02:07:48.304Z,99861.98
2018-11-23T02:08:23.529Z,99857.00
2018-11-23T02:08:58.750Z,99861.12
2018-11-23T02:09:34.202Z,99856.32
2018-11-23T02:10:11.173Z,99864.17
2018-11-23T02:10:46.628Z,99863.38
2018-11-23T02:11:21.701Z,99858.20
2018-11-23T02:11:57.788Z,99861.63
2018-11-23T02:12:33.254Z,99865.44
2018-11-23T02:13:08.762Z,99861.98
2018-11-23T02:13:44.190Z,99867.62
2018-11-23T02:14:19.412Z,99859.08
2018-11-23T02:14:54.663Z,99864.13
2018-11-23T02:15:30.119Z,99861.92
2018-11-23T02:16:05.490Z,99851.26
2018-11-23T02:16:40.971Z,99856.21
2018-11-23T02:17:16.245Z,99862.72
2018-11-23T02:17:52.152Z,99865.05
2018-11-23T02:18:27.695Z,99867.81
2018-11-23T02:19:03.099Z,99862.09
2018-11-23T02:19:38.498Z,99865.00
2018-11-23T02:20:15.653Z,99863.59
2018-11-23T02:20:50.999Z,99863.54
2018-11-23T02:21:26.249Z,99861.09
2018-11-23T02:22:01.540Z,99858.64
2018-11-23T02:22:36.898Z,99862.13
2018-11-23T02:23:12.916Z,99863.86
2018-11-23T02:23:48.241Z,99866.63
2018-11-23T02:24:23.609Z,99856.94
2018-11-23T02:24:59.066Z,99864.23
2018-11-23T02:25:34.483Z,99860.02
2018-11-23T02:26:10.032Z,99863.75
2018-11-23T02:26:45.185Z,99856.10
2018-11-23T02:27:20.506Z,99856.05
2018-11-23T02:27:56.012Z,99859.75
2018-11-23T02:28:31.431Z,99862.78
2018-11-23T02:29:07.161Z,99863.08
2018-11-23T02:29:42.628Z,99855.18
2018-11-23T02:30:21.334Z,99865.00
2018-11-23T02:30:56.632Z,99855.54
2018-11-23T02:31:33.404Z,99856.09
2018-11-23T02:32:08.936Z,99858.30
2018-11-23T02:32:44.624Z,99855.28
2018-11-23T02:33:20.002Z,99851.42
2018-11-23T02:33:55.332Z,99859.23
2018-11-23T02:34:31.028Z,99855.22
2018-11-23T02:35:06.741Z,99861.73
2018-11-23T02:35:42.070Z,99854.13
2018-11-23T02:36:17.669Z,99856.00
2018-11-23T02:36:53.223Z,99856.00
2018-11-23T02:37:28.869Z,99859.55
2018-11-23T02:38:04.280Z,99859.86
2018-11-23T02:38:39.712Z,99854.13
2018-11-23T02:39:15.080Z,99852.16
2018-11-23T02:39:50.579Z,99856.22
2018-11-23T02:40:25.880Z,99858.25
2018-11-23T02:41:01.282Z,99851.84
2018-11-23T02:41:36.695Z,99850.28
2018-11-23T02:42:12.472Z,99848.36
2018-11-23T02:42:48.087Z,99853.94
2018-11-23T02:43:23.627Z,99851.80
2018-11-23T02:43:59.250Z,99854.38
2018-11-23T02:44:34.407Z,99851.16
2018-11-23T02:45:13.813Z,99850.38
2018-11-23T02:45:49.349Z,99849.59
2018-11-23T02:46:24.978Z,99854.19
2018-11-23T02:47:00.579Z,99853.40
2018-11-23T02:47:35.970Z,99850.31
2018-11-23T02:48:11.442Z,99849.42
2018-11-23T02:48:47.058Z,99853.75
2018-11-23T02:49:22.363Z,99847.69
2018-11-23T02:49:57.812Z,99847.69
2018-11-23T02:50:33.483Z,99843.77
2018-11-23T02:51:09.017Z,99848.34
2018-11-23T02:51:44.371Z,99846.98
2018-11-23T02:52:20.038Z,99846.03
2018-11-23T02:52:55.537Z,99841.45
2018-11-23T02:53:31.205Z,99848.28
2018-11-23T02:54:06.430Z,99845.52
2018-11-23T02:54:41.934Z,99850.31
2018-11-23T02:55:18.741Z,99848.87
2018-11-23T02:55:53.848Z,99848.30
2018-11-23T02:56:34.120Z,99848.74
2018-11-23T02:57:09.446Z,99844.74
2018-11-23T02:57:44.974Z,99845.64
2018-11-23T02:58:20.414Z,99846.22
2018-11-23T02:58:55.570Z,99848.52
2018-11-23T02:59:30.977Z,99848.50
2018-11-23T03:00:07.872Z,99844.02
2018-11-23T03:00:43.221Z,99839.39
2018-11-23T03:01:18.505Z,99839.34
2018-11-23T03:01:53.934Z,99843.45
2018-11-23T03:02:29.094Z,99843.72
2018-11-23T03:03:04.352Z,99841.80
2018-11-23T03:03:39.871Z,99838.93
2018-11-23T03:04:15.114Z,99839.09
2018-11-23T03:04:50.464Z,99846.48
2018-11-23T03:05:25.886Z,99844.81
2018-11-23T03:06:01.234Z,99838.20
2018-11-23T03:06:36.914Z,99835.60
2018-11-23T03:07:12.385Z,99841.37
2018-11-23T03:07:47.643Z,99837.27
2018-11-23T03:08:22.885Z,99836.30
2018-11-23T03:08:58.604Z,99842.49
2018-11-23T03:09:33.792Z,99835.22
2018-11-23T03:10:11.459Z,99833.92
2018-11-23T03:10:47.041Z,99834.88
2018-11-23T03:11:22.410Z,99835.19
2018-11-23T03:11:57.796Z,99836.22
2018-11-23T03:12:33.091Z,99835.02
2018-11-23T03:13:08.382Z,99838.67
2018-11-23T03:13:43.665Z,99839.14
2018-11-23T03:14:19.290Z,99830.72
2018-11-23T03:14:54.508Z,99831.23
2018-11-23T03:15:29.843Z,99830.84
2018-11-23T03:16:05.505Z,99833.87
2018-11-23T03:16:40.897Z,99831.16
2018-11-23T03:17:16.195Z,99824.41
2018-11-23T03:17:51.999Z,99831.95
2018-11-23T03:18:27.455Z,99833.87
2018-11-23T03:19:02.728Z,99829.16
2018-11-23T03:19:38.379Z,99826.84
2018-11-23T03:20:16.179Z,99825.70
2018-11-23T03:20:51.458Z,99820.92
2018-11-23T03:21:26.911Z,99826.54
2018-11-23T03:22:02.336Z,99824.88
2018-11-23T03:22:37.801Z,99825.09
2018-11-23T03:23:13.240Z,99819.86
2018-11-23T03:23:48.820Z,99825.03
2018-11-23T03:24:24.416Z,99816.93
2018-11-23T03:24:59.799Z,99821.42
2018-11-23T03:25:35.097Z,99822.20
2018-11-23T03:26:10.602Z,99822.77
2018-11-23T03:26:45.668Z,99816.84
2018-11-23T03:27:21.136Z,99817.23
2018-11-23T03:27:56.892Z,99817.50
2018-11-23T03:28:32.266Z,99818.48
2018-11-23T03:29:07.974Z,99814.28
2018-11-23T03:29:43.510Z,99813.38
2018-11-23T03:30:21.734Z,99819.89
2018-11-23T03:30:57.006Z,99815.97
2018-11-23T03:31:32.514Z,99813.28
2018-11-23T03:32:08.065Z,99812.60
2018-11-23T03:32:43.820Z,99817.08
2018-11-23T03:33:19.290Z,99814.62
2018-11-23T03:33:55.600Z,99812.03
2018-11-23T03:34:30.999Z,99820.52
2018-11-23T03:35:07.018Z,99816.66
2018-11-23T03:35:42.534Z,99820.14
2018-11-23T03:36:17.945Z,99820.56
2018-11-23T03:36:53.356Z,99813.40
2018-11-23T03:37:28.549Z,99813.13
2018-11-23T03:38:04.129Z,99811.56
2018-11-23T03:38:39.684Z,99820.05
2018-11-23T03:39:15.115Z,99811.83
2018-11-23T03:39:50.490Z,99813.48
2018-11-23T03:40:25.991Z,99814.73
2018-11-23T03:41:01.365Z,99801.98
2018-11-23T03:41:36.824Z,99812.45
2018-11-23T03:42:12.166Z,99808.18
2018-11-23T03:42:47.632Z,99809.64
2018-11-23T03:43:23.035Z,99798.77
2018-11-23T03:43:58.404Z,99809.34
2018-11-23T03:44:33.737Z,99815.10
2018-11-23T03:45:10.993Z,99807.70
2018-11-23T03:45:46.420Z,99803.45
2018-11-23T03:46:22.094Z,99808.55
2018-11-23T03:46:57.553Z,99804.17
2018-11-23T03:47:32.972Z,99800.17
2018-11-23T03:48:08.682Z,99797.69
2018-11-23T03:48:44.137Z,99799.30
2018-11-23T03:49:19.437Z,99799.40
2018-11-23T03:49:55.049Z,99792.73
2018-11-23T03:50:30.603Z,99793.05
2018-11-23T03:51:06.378Z,99794.45
2018-11-23T03:51:41.904Z,99795.23
2018-11-23T03:52:17.531Z,99798.00
2018-11-23T03:52:52.933Z,99798.45
2018-11-23T03:53:28.274Z,99791.80
2018-11-23T03:54:03.576Z,99796.59
2018-11-23T03:54:38.909Z,99792.53
2018-11-23T03:55:14.332Z,99796.54
2018-11-23T03:55:49.727Z,99798.66
2018-11-23T03:56:24.997Z,99788.98
2018-11-23T03:57:00.501Z,99786.50
2018-11-23T03:57:36.390Z,99791.30
2018-11-23T03:58:11.968Z,99792.80
2018-11-23T03:58:47.571Z,99788.73
2018-11-23T03:59:22.975Z,99784.92
2018-11-23T03:59:58.687Z,99785.47
2018-11-23T04:00:34.028Z,99787.59
2018-11-23T04:01:09.535Z,99775.27
2018-11-23T04:01:45.020Z,99778.75
2018-11-23T04:02:20.616Z,99781.00
2018-11-23T04:02:55.930Z,99779.33
2018-11-23T04:03:31.177Z,99775.34
2018-11-23T04:04:06.811Z,99772.05
2018-11-23T04:04:42.387Z,99772.36
2018-11-23T04:05:18.477Z,99779.69
2018-11-23T04:05:53.966Z,99776.62
2018-11-23T04:06:29.424Z,99776.30
2018-11-23T04:07:04.854Z,99780.41
2018-11-23T04:07:40.298Z,99773.97
2018-11-23T04:08:15.859Z,99776.89
2018-11-23T04:08:51.886Z,99776.05
2018-11-23T04:09:27.482Z,99767.98
2018-11-23T04:10:03.161Z,99772.15
2018-11-23T04:10:39.069Z,99772.70
2018-11-23T04:11:14.420Z,99776.89
2018-11-23T04:11:49.819Z,99773.86
2018-11-23T04:12:25.279Z,99775.00
2018-11-23T04:13:00.859Z,99775.85
2018-11-23T04:13:36.386Z,99777.45
2018-11-23T04:14:11.784Z,99774.06
2018-11-23T04:14:46.993Z,99768.76
2018-11-23T04:15:22.340Z,99774.55
2018-11-23T04:15:57.691Z,99768.66
2018-11-23T04:16:33.088Z,99771.67
2018-11-23T04:17:08.620Z,99768.70
2018-11-23T04:17:44.334Z,99767.36
2018-11-23T04:18:19.671Z,99762.91
2018-11-23T04:18:55.211Z,99766.08
2018-11-23T04:19:30.590Z,99767.11
2018-11-23T04:20:07.469Z,99762.84
2018-11-23T04:20:47.184Z,99763.63
2018-11-23T04:21:22.656Z,99755.13
2018-11-23T04:21:58.137Z,99759.51
2018-11-23T04:22:34.028Z,99756.73
2018-11-23T04:23:09.533Z,99758.10
2018-11-23T04:23:44.734Z,99760.86
2018-11-23T04:24:20.033Z,99762.16
2018-11-23T04:24:55.517Z,99752.62
2018-11-23T04:25:30.748Z,99756.38
2018-11-23T04:26:06.332Z,99763.77
2018-11-23T04:26:41.799Z,99754.30
2018-11-23T04:27:17.195Z,99759.19
2018-11-23T04:27:52.436Z,99759.20
2018-11-23T04:28:27.997Z,99754.56
2018-11-23T04:29:03.506Z,99755.13
2018-11-23T04:29:38.755Z,99743.70
2018-11-23T04:30:16.040Z,99748.47
2018-11-23T04:30:51.274Z,99748.83
2018-11-23T04:31:26.481Z,99746.47
2018-11-23T04:32:02.030Z,99740.22
2018-11-23T04:32:37.495Z,99749.87
2018-11-23T04:33:12.774Z,99742.81
2018-11-23T04:33:48.017Z,99743.70
2018-11-23T04:34:23.502Z,99738.16
2018-11-23T04:34:58.995Z,99740.72
2018-11-23T04:35:34.388Z,99743.96
2018-11-23T04:36:09.775Z,99745.68
2018-11-23T04:36:45.318Z,99738.09
2018-11-23T04:37:20.522Z,99738.45
2018-11-23T04:37:55.955Z,99738.86
2018-11-23T04:38:31.225Z,99736.30
2018-11-23T04:39:08.984Z,99731.36
2018-11-23T04:39:44.377Z,99735.73
2018-11-23T04:40:20.535Z,99733.07
2018-11-23T04:40:55.854Z,99729.23
2018-11-23T04:41:31.328Z,99727.27
2018-11-23T04:42:06.976Z,99726.91
2018-11-23T04:42:43.082Z,99724.20
2018-11-23T04:43:18.492Z,99725.76
2018-11-23T04:43:53.907Z,99720.27
2018-11-23T04:44:29.428Z,99715.79
2018-11-23T04:45:04.903Z,99717.39
2018-11-23T04:45:40.245Z,99720.16
2018-11-23T04:46:15.669Z,99716.34
2018-11-23T04:46:50.970Z,99714.73
2018-11-23T04:47:26.426Z,99716.86
2018-11-23T04:48:01.778Z,99713.91
2018-11-23T04:48:37.004Z,99708.80
2018-11-23T04:49:12.460Z,99710.10
2018-11-23T04:49:47.679Z,99710.06
2018-11-23T04:50:23.141Z,99708.23
2018-11-23T04:50:58.404Z,99707.92
2018-11-23T04:51:33.741Z,99709.34
2018-11-23T04:52:09.177Z,99704.56
2018-11-23T04:52:45.027Z,99703.06
2018-11-23T04:53:20.201Z,99704.98
2018-11-23T04:53:55.531Z,99703.63
2018-11-23T04:54:30.989Z,99705.88
2018-11-23T04:55:07.426Z,99694.22
2018-11-23T04:55:43.166Z,99701.80
2018-11-23T04:56:18.524Z,99699.25
2018-11-23T04:56:54.070Z,99698.36
2018-11-23T04:57:29.310Z,99700.97
2018-11-23T04:58:04.637Z,99693.91
2018-11-23T04:58:40.104Z,99701.19
2018-11-23T04:59:15.616Z,99692.48
2018-11-23T04:59:50.776Z,99699.10
2018-11-23T05:00:26.068Z,99693.59
2018-11-23T05:01:01.478Z,99691.71
2018-11-23T05:01:36.994Z,99696.92
2018-11-23T05:02:12.451Z,99693.08
2018-11-23T05:02:48.621Z,99694.05
2018-11-23T05:03:24.089Z,99690.63
2018-11-23T05:03:59.687Z,99685.58
2018-11-23T05:04:34.832Z,99686.69
2018-11-23T05:05:12.168Z,99682.67
2018-11-23T05:05:47.406Z,99682.83
2018-11-23T05:06:22.885Z,99684.95
2018-11-23T05:06:58.217Z,99683.97
2018-11-23T05:07:33.654Z,99688.70
2018-11-23T05:08:09.099Z,99691.31
2018-11-23T05:08:44.479Z,99681.91
2018-11-23T05:09:20.362Z,99692.48
2018-11-23T05:09:55.867Z,99684.64
2018-11-23T05:10:31.255Z,99682.58
2018-11-23T05:11:06.696Z,99682.00
2018-11-23T05:11:42.143Z,99689.54
2018-11-23T05:12:17.415Z,99686.04
2018-11-23T05:12:52.569Z,99675.86
2018-11-23T05:13:27.933Z,99682.52
2018-11-23T05:14:03.154Z,99678.67
2018-11-23T05:14:38.629Z,99675.24
2018-11-23T05:15:15.985Z,99679.11
2018-11-23T05:15:51.360Z,99684.19
2018-11-23T05:16:26.503Z,99680.13
2018-11-23T05:17:01.902Z,99678.06
2018-11-23T05:17:37.555Z,99676.40
2018-11-23T05:18:12.830Z,99680.17
2018-11-23T05:18:48.066Z,99676.59
2018-11-23T05:19:23.671Z,99674.41
2018-11-23T05:19:59.073Z,99678.22
2018-11-23T05:20:34.711Z,99672.38
2018-11-23T05:21:10.054Z,99678.41
2018-11-23T05:21:45.559Z,99666.63
2018-11-23T05:22:21.132Z,99666.88
2018-11-23T05:22:56.728Z,99669.31
2018-11-23T05:23:31.989Z,99667.25
2018-11-23T05:24:07.634Z,99670.09
2018-11-23T05:24:43.100Z,99667.39
2018-11-23T05:25:19.565Z,99665.16
2018-11-23T05:25:55.618Z,99668.63
2018-11-23T05:26:30.977Z,99662.66
2018-11-23T05:27:06.695Z,99664.22
2018-11-23T05:27:42.113Z,99667.73
2018-11-23T05:28:17.602Z,99668.88
2018-11-23T05:28:52.782Z,99663.89
2018-11-23T05:29:28.213Z,99669.72
2018-11-23T05:30:03.685Z,99663.34
2018-11-23T05:30:39.050Z,99663.34
2018-11-23T05:31:14.290Z,99661.68
2018-11-23T05:31:49.552Z,99663.91
2018-11-23T05:32:24.941Z,99653.36
2018-11-23T05:33:00.478Z,99662.56
2018-11-23T05:33:35.704Z,99655.50
2018-11-23T05:34:11.376Z,99658.00
2018-11-23T05:34:46.769Z,99655.63
2018-11-23T05:35:21.933Z,99656.06
2018-11-23T05:35:57.380Z,99650.67
2018-11-23T05:36:32.657Z,99655.55
2018-11-23T05:37:07.880Z,99655.03
2018-11-23T05:37:43.205Z,99653.52
2018-11-23T05:38:18.680Z,99655.88
2018-11-23T05:38:53.966Z,99653.42
2018-11-23T05:39:29.352Z,99650.46
2018-11-23T05:40:04.897Z,99652.18
2018-11-23T05:40:40.179Z,99650.52
2018-11-23T05:41:15.462Z,99644.02
2018-11-23T05:41:50.842Z,99645.01
2018-11-23T05:42:26.291Z,99650.86
2018-11-23T05:43:04.420Z,99647.97
2018-11-23T05:43:37.062Z,99650.72
2018-11-23T05:44:12.436Z,99642.92
2018-11-23T05:44:47.985Z,99647.12
2018-11-23T05:45:23.869Z,99639.48
2018-11-23T05:45:59.273Z,99639.50
2018-11-23T05:46:34.819Z,99641.48
2018-11-23T05:47:10.305Z,99640.91
2018-11-23T05:47:45.700Z,99637.25
2018-11-23T05:48:26.819Z,99633.56
2018-11-23T05:48:56.458Z,99636.21
2018-11-23T05:49:31.765Z,99631.91
2018-11-23T05:50:09.545Z,99633.16
2018-11-23T05:50:44.787Z,99627.80
2018-11-23T05:51:20.193Z,99633.61
2018-11-23T05:51:55.588Z,99633.08
2018-11-23T05:52:31.218Z,99631.73
2018-11-23T05:53:06.620Z,99635.20
2018-11-23T05:53:41.934Z,99637.34
2018-11-23T05:54:17.247Z,99628.45
2018-11-23T05:54:52.726Z,99632.27
2018-11-23T05:55:28.050Z,99628.02
2018-11-23T05:56:03.621Z,99629.34
2018-11-23T05:56:39.213Z,99630.12
2018-11-23T05:57:14.690Z,99629.20
2018-11-23T05:57:50.268Z,99629.10
2018-11-23T05:58:25.864Z,99624.47
2018-11-23T05:59:00.985Z,99623.95
2018-11-23T05:59:36.663Z,99622.07
2018-11-23T06:00:18.252Z,99625.09
2018-11-23T06:00:53.560Z,99619.65
2018-11-23T06:01:29.103Z,99623.44
2018-11-23T06:02:04.025Z,99621.46
2018-11-23T06:02:39.437Z,99618.48
2018-11-23T06:03:14.783Z,99615.53
2018-11-23T06:03:50.508Z,99618.49
2018-11-23T06:04:25.981Z,99611.22
2018-11-23T06:05:01.610Z,99612.90
2018-11-23T06:05:36.916Z,99615.22
2018-11-23T06:06:12.232Z,99613.76
2018-11-23T06:06:47.746Z,99616.67
2018-11-23T06:07:23.229Z,99618.59
2018-11-23T06:07:58.662Z,99609.59
2018-11-23T06:08:33.857Z,99615.77
2018-11-23T06:09:09.412Z,99613.45
2018-11-23T06:09:44.675Z,99615.52
2018-11-23T06:10:21.312Z,99613.34
2018-11-23T06:10:56.732Z,99613.03
2018-11-23T06:11:32.283Z,99613.34
2018-11-23T06:12:07.473Z,99614.81
2018-11-23T06:12:42.945Z,99612.52
2018-11-23T06:13:18.304Z,99608.52
2018-11-23T06:13:53.504Z,99608.05
2018-11-23T06:14:28.732Z,99609.31
2018-11-23T06:15:04.295Z,99606.70
2018-11-23T06:15:44.423Z,99604.41
2018-11-23T06:16:15.259Z,99614.59
2018-11-23T06:16:50.704Z,99611.55
2018-11-23T06:17:26.100Z,99607.95
2018-11-23T06:18:01.373Z,99606.53
2018-11-23T06:18:36.724Z,99600.26
2018-11-23T06:19:12.163Z,99602.13
2018-11-23T06:19:47.655Z,99599.95
2018-11-23T06:20:24.931Z,99607.75
2018-11-23T06:21:00.356Z,99603.70
2018-11-23T06:21:35.800Z,99601.77
2018-11-23T06:22:11.081Z,99609.55
2018-11-23T06:22:48.021Z,99602.17
2018-11-23T06:23:23.300Z,99605.88
2018-11-23T06:23:58.683Z,99609.16
2018-11-23T06:24:33.912Z,99601.31
2018-11-23T06:25:13.123Z,99601.82
2018-11-23T06:25:51.093Z,99599.63
2018-11-23T06:26:28.394Z,99599.52
2018-11-23T06:27:03.826Z,99595.43
2018-11-23T06:27:39.107Z,99604.79
2018-11-23T06:28:14.423Z,99592.94
2018-11-23T06:28:49.830Z,99596.95
2018-11-23T06:29:25.114Z,99592.94
2018-11-23T06:30:00.675Z,99590.23
2018-11-23T06:30:35.978Z,99592.64
2018-11-23T06:31:11.848Z,99596.16
2018-11-23T06:31:47.626Z,99589.61
2018-11-23T06:32:33.154Z,99594.56
2018-11-23T06:33:18.696Z,99585.37
2018-11-23T06:33:54.308Z,99587.94
2018-11-23T06:34:29.814Z,99585.77
2018-11-23T06:35:05.234Z,99589.48
2018-11-23T06:35:40.546Z,99590.70
2018-11-23T06:36:16.024Z,99584.45
2018-11-23T06:36:51.358Z,99581.70
2018-11-23T06:37:27.069Z,99582.27
2018-11-23T06:38:02.464Z,99583.83
2018-11-23T06:38:38.212Z,99584.36
2018-11-23T06:39:13.574Z,99580.47
2018-11-23T06:39:49.153Z,99571.73
2018-11-23T06:40:24.307Z,99571.48
2018-11-23T06:40:59.865Z,99573.83
2018-11-23T06:41:35.048Z,99579.38
2018-11-23T06:42:10.309Z,99578.81
2018-11-23T06:42:45.711Z,99575.53
2018-11-23T06:43:20.933Z,99572.06
2018-11-23T06:43:56.361Z,99571.73
2018-11-23T06:44:31.711Z,99572.00
2018-11-23T06:45:07.799Z,99570.60
2018-11-23T06:45:44.791Z,99565.50
2018-11-23T06:46:20.055Z,99563.44
2018-11-23T06:46:55.427Z,99565.10
2018-11-23T06:47:30.912Z,99566.61
2018-11-23T06:48:07.182Z,99565.52
2018-11-23T06:48:42.391Z,99568.47
2018-11-23T06:49:17.729Z,99563.31
2018-11-23T06:49:52.870Z,99560.11
2018-11-23T06:50:28.152Z,99561.27
2018-11-23T06:51:03.539Z,99563.06
2018-11-23T06:51:38.806Z,99561.41
2018-11-23T06:52:14.331Z,99560.31
2018-11-23T06:52:49.915Z,99563.53
2018-11-23T06:53:25.377Z,99560.38
2018-11-23T06:54:00.732Z,99555.28
2018-11-23T06:54:35.938Z,99555.39
2018-11-23T06:55:12.469Z,99555.92
2018-11-23T06:55:47.788Z,99551.56
2018-11-23T06:56:23.006Z,99557.15
2018-11-23T06:56:58.454Z,99557.67
2018-11-23T06:57:33.780Z,99556.02
2018-11-23T06:58:09.189Z,99555.14